Abraham Lincoln Capital Airport
KSPI : now visible

Airfield :











YOU CAN JOIN US ON...

 
LOGIN :

Register | Disclaimer

   EN    FR    IT 

 









Legend :    VFR   Marginal VFR   IFR   Intensive IFR   Very Intensive IFR
Visi :
Ceiling :
>= 8 km
>= 3000ft
5 to 8 km
1000 to 3000 ft
1500m to 5 km
500 to 1000 ft
800 to 1500m
200 to 500 ft
< 800m
< 200 ft
Symbols :   Thunderstorms  Fog  Heavy snow  Heavy precipitations  Wind > 20 kt







- Airport Elevation : 598 ft
- IATA code : SPI


KSPI - Abraham Lincoln Capital

CURRENT METAR :
  • 191652Z 36022G30KT 10SM BKN030 OVC038 08/03 A2984 RMK AO2 PK WND 36031/1610 SLP106 T00830033

EXPIRED METARs :
  • 191559Z 36017G30KT 10SM OVC034 08/03 A2984 RMK AO2 PK WND 36030/1555 T00830033
  • 191552Z 01020G29KT 10SM BKN026 BKN033 OVC040 08/03 A2984 RMK AO2 PK WND 01030/1527 SLP107 T00830033
  • 191510Z 35017G29KT 10SM BKN026 BKN033 OVC040 08/03 A2984 RMK AO2 PK WND 01029/1459 T00830033
  • 191452Z 35020G29KT 10SM FEW025 SCT030 OVC037 08/03 A2984 RMK AO2 PK WND 35029/1450 SLP105 60000 T00780033 51012
  • 191434Z 36019G26KT 10SM SCT030 OVC036 08/03 A2984 RMK AO2 PK WND 01029/1423 T00780033
  • 191352Z 36017G27KT 10SM OVC029 07/04 A2983 RMK AO2 PK WND 35027/1345 SLP104 T00720039

TAF KSPI
Valid from the 19 at 12:00 until the 20 at 12:00 UTC


191126Z 1912/2012 36016G25KT P6SM VCSH BKN022 OVC040
TEMPO 1912/1915 SCT022 OVC040
FM191800 01020G31KT P6SM BKN035
FM192200 01020KT P6SM SCT035
FM200700 35013KT P6SM FEW250 WS020/02045KT
KZKC FIR / North America



MET'MAP, your aeronautical weather chart ! - Copyright ORBIFLY December 2007 - Disclaimer

ORBIFLY MET'MAP TEAM :

Programming & Development : Alexandra Zaïnal
Concept & Development : Baudouin d'Aumeries
Co-Development & Prog : Marc-Olivier Méhu
Technical & hardware support : Manuel Goepfert

Contact : metmap@orbifly.com




SOURCES & CREDITS :

   NOAA       Earth
Advisory